This is the latest recevied weather packets stored in our database for station/object MMMX. If no packets are shown the sender has not sent any weather packets the latest 10 day(s).
| Time | Temp. | Humidity | Pressure | Rain* | Wind** | Luminosity | Snow |
|---|---|---|---|---|---|---|---|
| 1777429422 | 25° C | 27% | 1024.7 hPa | - | - | - | - |
| 1777428224 | 25° C | 27% | 1024.7 hPa | - | - | - | - |
| 1777427023 | 25.56° C | 13% | 1024 hPa | - | - | - | - |
| 1777426424 | 25.56° C | 13% | 1024 hPa | - | - | - | - |
| 1777422820 | 28.89° C | 10% | 1023.4 hPa | - | - | - | - |
| 1777422226 | 28.89° C | 10% | 1023.4 hPa | - | - | - | - |
| 1777421624 | 28.89° C | 10% | 1023.4 hPa | - | - | - | - |
| 1777414424 | 30.56° C | 9% | 1023.4 hPa | - | - | - | - |
| 1777412625 | 30.56° C | 12% | 1024.4 hPa | - | - | - | - |
| 1777409026 | 30° C | 12% | 1025.4 hPa | - | - | - | - |
| 1777407950 | 30° C | 12% | 1025.4 hPa | - | - | - | - |
| 1777407227 | 30° C | 12% | 1025.4 hPa | - | - | - | - |
| 1777403027 | 27.78° C | - | 1026.8 hPa | - | - | - | - |
| 1777398225 | 25.56° C | 27% | 1028.4 hPa | - | - | - | - |
| 1777397627 | 25.56° C | 27% | 1028.4 hPa | - | - | - | - |
| 1777394022 | 22.78° C | 27% | 1029.1 hPa | - | - | - | - |
| 1777385624 | 17.78° C | 52% | 1028.4 hPa | - | - | - | - |
| 1777383223 | 15° C | 58% | 1027.4 hPa | - | - | - | - |
| 1777381423 | 15° C | 58% | 1027.4 hPa | - | - | - | - |
| 1777377826 | 13.89° C | 62% | 1026.4 hPa | - | - | - | - |
| 1777374822 | 13.89° C | 62% | 1026.4 hPa | - | - | - | - |
| 1777372420 | 15° C | 62% | 1026.1 hPa | - | - | - | - |
| 1777371823 | 15° C | 62% | 1026.1 hPa | - | - | - | - |
| 1777371220 | 15° C | 62% | 1026.1 hPa | - | - | - | - |
| 1777368822 | 15.56° C | 59% | 1026.1 hPa | - | - | - | - |
* Rain since midnight (hover to see other rain measurements)
** Current wind speed in m/s (hover to see current wind gust speed)